Time;durP1;ratioP1;P1;durP2;ratioP2;P2;SDS_P1;SDS_P2;PMS_P1;PMS_P2;Temp;Humidity;BMP_temperature;BMP_pressure;BME280_temperature;BME280_humidity;BME280_pressure;Samples;Min_cycle;Max_cycle;Signal;HPM_P1;HPM_P2
2020/12/02 00:00:33;;;;;;;152.17;71.57;;;;;;;-1.16;73.83;101173.03;126609;1098;23329;-75
2020/12/02 00:03:14;;;;;;;;;;;;;;;-1.19;73.70;101171.41;126669;1098;23336;-74
2020/12/02 00:05:47;;;;;;;121.00;58.38;;;;;;;-1.22;73.91;101173.41;126673;1098;21636;-75
2020/12/02 00:08:48;;;;;;;115.95;57.50;;;;;;;-1.21;74.31;101178.68;126626;1099;23764;-74
2020/12/02 00:11:16;;;;;;;123.67;59.55;;;;;;;-1.22;73.90;101173.41;126088;1101;23903;-75
2020/12/02 00:13:50;;;;;;;112.57;60.13;;;;;;;-1.24;73.78;101177.06;126123;1101;26804;-75
2020/12/02 00:16:26;;;;;;;139.25;67.50;;;;;;;-1.24;74.23;101174.39;126095;1101;23533;-76
2020/12/02 00:18:55;;;;;;;150.80;71.77;;;;;;;-1.24;74.53;101179.73;126162;1101;23411;-75
2020/12/02 00:21:32;;;;;;;114.80;56.33;;;;;;;-1.27;74.38;101176.37;126133;1101;23735;-75
2020/12/02 00:24:00;;;;;;;120.28;60.83;;;;;;;-1.26;74.31;101180.77;126162;1101;23577;-73
2020/12/02 00:26:29;;;;;;;105.85;56.68;;;;;;;-1.28;74.01;101178.20;126078;1101;23541;-75
2020/12/02 00:28:58;;;;;;;105.20;55.15;;;;;;;-1.28;74.62;101178.20;126104;1101;23411;-75
2020/12/02 00:31:27;;;;;;;114.35;61.18;;;;;;;-1.27;74.95;101184.41;126129;1101;23536;-75
2020/12/02 00:33:55;;;;;;;115.77;58.60;;;;;;;-1.27;74.27;101185.27;126157;1101;23331;-73
2020/12/02 00:36:23;;;;;;;122.35;60.58;;;;;;;-1.29;74.68;101187.17;126126;1101;23492;-75
2020/12/02 00:38:51;;;;;;;155.65;71.67;;;;;;;-1.29;74.77;101195.20;126130;1101;23378;-74
2020/12/02 00:41:20;;;;;;;102.78;55.73;;;;;;;-1.37;74.85;101178.75;126116;1101;25043;-75
2020/12/02 00:43:48;;;;;;;108.85;57.38;;;;;;;-1.29;74.91;101191.67;126157;1101;23353;-76
2020/12/02 00:46:16;;;;;;;105.60;57.85;;;;;;;-1.30;74.72;101190.82;126120;1101;23559;-75
2020/12/02 00:48:51;;;;;;;110.15;59.88;;;;;;;-1.31;74.67;101188.23;126281;1098;23527;-74
2020/12/02 00:51:21;;;;;;;111.68;62.33;;;;;;;-1.29;74.91;101205.06;126649;1098;23411;-75
2020/12/02 00:53:53;;;;;;;132.70;65.40;;;;;;;-1.31;74.76;101205.14;126626;1098;23324;-76
2020/12/02 00:56:22;;;;;;;139.53;68.80;;;;;;;-1.32;74.38;101206.12;126640;1098;23325;-75
2020/12/02 00:59:19;;;;;;;150.70;75.93;;;;;;;-1.33;74.75;101208.88;126578;1098;23379;-77
2020/12/02 01:02:09;;;;;;;135.03;67.10;;;;;;;-1.34;74.43;101205.34;126606;1098;26558;-76
2020/12/02 01:04:41;;;;;;;111.40;59.70;;;;;;;-1.36;74.88;101203.73;126698;1098;26838;-77
2020/12/02 01:07:12;;;;;;;100.30;53.43;;;;;;;-1.35;74.78;101210.78;126726;1098;23415;-75
2020/12/02 01:09:41;;;;;;;101.38;55.38;;;;;;;-1.37;75.09;101204.66;126686;1098;23379;-75
2020/12/02 01:12:16;;;;;;;111.22;57.75;;;;;;;-1.37;74.69;101210.88;126643;1098;23321;-76
2020/12/02 01:14:45;;;;;;;112.70;59.00;;;;;;;-1.38;75.17;101211.84;126554;1098;27841;-75
2020/12/02 01:17:15;;;;;;;128.60;65.40;;;;;;;-1.38;74.86;101208.31;126673;1098;24976;-75
2020/12/02 01:19:43;;;;;;;126.87;65.30;;;;;;;-1.39;75.12;101206.57;126574;1099;27984;-75
2020/12/02 01:22:33;;;;;;;114.12;59.27;;;;;;;-1.41;74.96;101206.66;126625;1098;23463;-76
2020/12/02 01:25:10;;;;;;;106.00;56.25;;;;;;;-1.45;75.06;101197.98;126656;1098;23382;-77
2020/12/02 01:27:52;;;;;;;103.30;57.45;;;;;;;-1.47;75.44;101194.53;126666;1098;23462;-76
2020/12/02 01:30:22;;;;;;;99.28;54.23;;;;;;;-1.46;75.16;101190.03;126644;1098;23392;-77
2020/12/02 01:32:52;;;;;;;104.32;57.53;;;;;;;-1.46;74.98;101195.39;126713;1098;27784;-77
2020/12/02 01:35:24;;;;;;;119.77;64.37;;;;;;;-1.48;75.40;101197.30;126662;1098;25041;-75
2020/12/02 01:38:03;;;;;;;112.35;62.60;;;;;;;-1.52;75.47;101196.61;126595;1098;23323;-78
2020/12/02 01:40:34;;;;;;;132.73;67.23;;;;;;;-1.52;74.90;101195.75;126654;1098;26584;-76
2020/12/02 01:43:10;;;;;;;98.00;53.70;;;;;;;-1.52;75.13;101195.75;126674;1098;23325;-76
2020/12/02 01:45:55;;;;;;;110.32;60.55;;;;;;;-1.55;75.63;101191.45;126627;1098;26468;-75
2020/12/02 01:48:28;;;;;;;106.67;56.33;;;;;;;-1.57;75.20;101182.66;126595;1098;26786;-75
2020/12/02 01:51:46;;;;;;;104.80;56.60;;;;;;;-1.58;75.41;101190.77;126718;1098;27830;-76
2020/12/02 01:54:32;;;;;;;100.07;54.97;;;;;;;-1.58;75.58;101185.41;126636;1098;23383;-75
2020/12/02 01:57:19;;;;;;;131.12;64.85;;;;;;;-1.59;75.27;101189.06;126670;1098;23563;-76
2020/12/02 02:00:22;;;;;;;119.85;60.60;;;;;;;-1.61;75.37;101189.14;126592;1098;27806;-79
2020/12/02 02:03:09;;;;;;;116.22;63.95;;;;;;;-1.61;75.62;101186.47;126605;1098;26779;-74
2020/12/02 02:05:51;;;;;;;108.22;56.30;;;;;;;-1.63;75.72;101188.38;126599;1098;23333;-74
2020/12/02 02:08:25;;;;;;;98.17;54.27;;;;;;;-1.63;75.66;101176.82;126533;1098;23802;-77
2020/12/02 02:10:55;;;;;;;94.47;53.00;;;;;;;-1.63;75.51;101177.67;126704;1098;23330;-76
2020/12/02 02:13:40;;;;;;;94.62;54.03;;;;;;;-1.63;75.45;101179.50;126693;1098;23330;-75
2020/12/02 02:16:22;;;;;;;89.47;51.37;;;;;;;-1.66;75.36;101189.42;126657;1098;26775;-74
2020/12/02 02:18:54;;;;;;;99.92;58.15;;;;;;;-1.67;75.26;101179.66;126655;1098;23401;-75
2020/12/02 02:21:29;;;;;;;112.00;61.90;;;;;;;-1.67;75.47;101178.81;126662;1098;23398;-77
2020/12/02 02:23:57;;;;;;;107.43;59.70;;;;;;;-1.67;76.01;101176.14;126599;1098;23323;-76
2020/12/02 02:26:39;;;;;;;98.60;55.65;;;;;;;-1.67;75.93;101173.45;126682;1099;23376;-75
2020/12/02 02:29:36;;;;;;;102.12;55.95;;;;;;;-1.69;75.76;101168.19;126610;1098;26845;-75
2020/12/02 02:32:19;;;;;;;106.63;58.33;;;;;;;-1.69;76.01;101164.66;126652;1098;26568;-76
2020/12/02 02:34:55;;;;;;;102.55;57.75;;;;;;;-1.71;75.95;101169.25;126717;1098;28164;-77
2020/12/02 02:37:28;;;;;;;118.67;60.38;;;;;;;-1.70;75.63;101168.30;126620;1098;23321;-78
2020/12/02 02:40:00;;;;;;;109.42;61.95;;;;;;;-1.73;76.03;101169.36;126650;1098;23442;-79
2020/12/02 02:42:42;;;;;;;109.90;62.10;;;;;;;-1.76;76.08;101172.20;126711;1098;23390;-76
2020/12/02 02:45:27;;;;;;;100.22;54.30;;;;;;;-1.76;75.84;101166.00;126642;1098;23305;-77
2020/12/02 02:48:05;;;;;;;102.60;56.60;;;;;;;-1.77;76.19;101172.28;126715;1098;23336;-76
2020/12/02 02:50:36;;;;;;;94.72;55.92;;;;;;;-1.81;75.93;101168.95;126688;1098;23333;-77
2020/12/02 02:53:17;;;;;;;88.92;55.92;;;;;;;-1.82;75.69;101174.39;126650;1098;23330;-75
2020/12/02 02:55:47;;;;;;;94.70;58.87;;;;;;;-1.86;75.95;101165.67;126663;1098;26826;-74
2020/12/02 02:58:17;;;;;;;106.87;58.47;;;;;;;-1.87;75.60;101167.50;126702;1098;26561;-75
2020/12/02 03:00:45;;;;;;;88.58;52.08;;;;;;;-1.89;75.85;101155.17;126678;1099;23296;-75
2020/12/02 03:03:14;;;;;;;89.92;48.52;;;;;;;-1.90;76.02;101162.34;126619;1098;23379;-75
2020/12/02 03:05:43;;;;;;;91.20;52.83;;;;;;;-1.91;75.62;101157.93;126777;1098;25197;-76
2020/12/02 03:08:12;;;;;;;89.35;52.60;;;;;;;-1.91;76.10;101157.93;126664;1098;23311;-78
2020/12/02 03:10:45;;;;;;;85.60;49.35;;;;;;;-1.94;76.24;101152.78;126607;1098;23383;-75
2020/12/02 03:13:37;;;;;;;93.62;53.80;;;;;;;-1.96;76.16;101152.01;126705;1098;23397;-76
2020/12/02 03:16:32;;;;;;;98.70;54.95;;;;;;;-1.96;76.36;101157.36;126651;1098;26430;-75
2020/12/02 03:19:35;;;;;;;101.72;57.03;;;;;;;-1.98;76.02;101153.91;126614;1098;23384;-75
2020/12/02 03:22:10;;;;;;;98.82;52.98;;;;;;;-1.99;75.69;101157.52;126664;1098;23473;-76
2020/12/02 03:24:43;;;;;;;95.55;55.78;;;;;;;-2.00;76.39;101158.48;126623;1098;23508;-75
2020/12/02 03:27:11;;;;;;;91.42;52.00;;;;;;;-2.00;75.82;101153.14;126647;1098;26823;-76
2020/12/02 03:29:40;;;;;;;100.10;53.83;;;;;;;-1.99;75.83;101160.20;126571;1098;23315;-75
2020/12/02 03:32:08;;;;;;;106.03;57.27;;;;;;;-1.99;76.49;101157.52;126267;1098;23429;-75
2020/12/02 03:34:36;;;;;;;94.42;53.52;;;;;;;-1.99;76.46;101154.00;126645;1098;23432;-78
2020/12/02 03:37:04;;;;;;;110.90;59.45;;;;;;;-2.00;76.44;101155.81;126628;1098;26791;-75
2020/12/02 03:39:33;;;;;;;102.53;56.25;;;;;;;-2.01;76.32;101150.55;126594;1098;23345;-76
2020/12/02 03:42:02;;;;;;;87.08;51.45;;;;;;;-2.01;76.25;101155.90;126688;1098;23466;-76
2020/12/02 03:44:31;;;;;;;92.40;51.63;;;;;;;-2.04;75.98;101156.95;126647;1098;23488;-77
2020/12/02 03:47:00;;;;;;;90.45;53.95;;;;;;;-2.03;75.98;101153.30;126736;1098;24062;-77
2020/12/02 03:49:28;;;;;;;86.10;53.75;;;;;;;-2.04;76.42;101154.27;126680;1098;23334;-77
2020/12/02 03:51:57;;;;;;;88.52;52.38;;;;;;;-2.07;76.34;101157.99;126700;1098;26428;-76
2020/12/02 03:54:25;;;;;;;84.20;50.57;;;;;;;-2.08;75.83;101158.08;126646;1098;23370;-75
2020/12/02 03:56:53;;;;;;;92.15;52.13;;;;;;;-2.09;76.41;101154.55;126615;1098;26551;-74
2020/12/02 03:59:22;;;;;;;87.15;52.53;;;;;;;-2.11;76.20;101150.25;126653;1098;27796;-75
2020/12/02 04:01:51;;;;;;;82.53;49.42;;;;;;;-2.13;76.04;101152.16;126635;1098;23411;-75
2020/12/02 04:04:19;;;;;;;87.47;49.70;;;;;;;-2.16;76.32;101150.49;126623;1098;23379;-75
2020/12/02 04:06:48;;;;;;;99.58;55.00;;;;;;;-2.19;76.65;101152.51;126671;1098;23466;-76
2020/12/02 04:09:16;;;;;;;104.78;58.30;;;;;;;-2.19;76.48;101158.70;126639;1098;23325;-76
2020/12/02 04:11:45;;;;;;;94.50;53.48;;;;;;;-2.20;76.66;101151.63;126718;1098;23526;-77
2020/12/02 04:14:13;;;;;;;90.17;54.95;;;;;;;-2.20;76.66;101142.75;126673;1098;23400;-76
2020/12/02 04:16:41;;;;;;;93.62;53.00;;;;;;;-2.20;76.21;101148.09;126725;1098;23362;-75
2020/12/02 04:19:10;;;;;;;93.80;54.77;;;;;;;-2.21;76.54;101143.72;126656;1098;23390;-75
2020/12/02 04:21:39;;;;;;;94.00;58.17;;;;;;;-2.23;76.54;101140.27;126666;1098;23337;-76
2020/12/02 04:24:07;;;;;;;94.58;56.83;;;;;;;-2.23;76.79;101148.29;126626;1098;26256;-74
2020/12/02 04:26:35;;;;;;;95.07;56.55;;;;;;;-2.22;76.11;101148.17;126696;1098;23390;-76
2020/12/02 04:29:04;;;;;;;88.58;52.30;;;;;;;-2.24;76.62;101141.20;126567;1098;23460;-76
2020/12/02 04:31:32;;;;;;;102.53;56.90;;;;;;;-2.26;76.78;101152.86;126685;1099;23450;-74
2020/12/02 04:34:00;;;;;;;94.62;53.48;;;;;;;-2.26;76.25;101147.52;126708;1098;25165;-76
2020/12/02 04:36:29;;;;;;;93.67;54.42;;;;;;;-2.27;76.63;101145.78;126697;1098;23333;-74
2020/12/02 04:38:57;;;;;;;93.07;54.27;;;;;;;-2.29;76.76;101145.00;126615;1098;23379;-75
2020/12/02 04:41:30;;;;;;;96.60;55.17;;;;;;;-2.31;76.43;101149.58;126574;1098;23337;-76
2020/12/02 04:43:59;;;;;;;104.35;61.30;;;;;;;-2.31;76.41;101144.23;126706;1098;23330;-77
2020/12/02 04:46:32;;;;;;;104.70;61.17;;;;;;;-2.30;76.73;101145.12;126719;1098;27840;-77
2020/12/02 04:49:13;;;;;;;98.97;54.38;;;;;;;-2.31;76.78;101138.88;126628;1098;25201;-76
2020/12/02 04:51:42;;;;;;;105.47;61.55;;;;;;;-2.33;76.42;101140.79;126647;1099;23321;-74
2020/12/02 04:54:11;;;;;;;94.10;54.85;;;;;;;-2.34;76.38;101147.09;126725;1098;23327;-75
2020/12/02 04:56:46;;;;;;;107.45;61.05;;;;;;;-2.33;76.72;101140.79;126689;1099;23326;-76
2020/12/02 04:59:16;;;;;;;94.20;57.62;;;;;;;-2.34;76.28;101147.09;126778;1098;23391;-75
2020/12/02 05:01:55;;;;;;;103.53;60.95;;;;;;;-2.33;76.77;101143.45;126664;1098;24951;-76
2020/12/02 05:04:27;;;;;;;102.60;55.43;;;;;;;-2.35;76.43;101140.02;126675;1098;23495;-77
2020/12/02 05:07:14;;;;;;;101.10;58.68;;;;;;;-2.36;76.42;101153.48;126672;1098;23324;-76
2020/12/02 05:10:09;;;;;;;95.75;54.10;;;;;;;-2.38;76.21;101152.71;126626;1098;23322;-75
2020/12/02 05:12:44;;;;;;;102.22;57.30;;;;;;;-2.40;76.21;101157.28;126678;1098;23333;-75
2020/12/02 05:15:24;;;;;;;112.62;63.25;;;;;;;-2.41;76.33;101155.55;126734;1098;23458;-77
2020/12/02 05:18:18;;;;;;;106.43;59.73;;;;;;;-2.42;76.89;101152.02;126680;1098;23477;-76
2020/12/02 05:21:18;;;;;;;113.68;66.12;;;;;;;-2.42;76.51;101154.69;126723;1098;23329;-77
2020/12/02 05:24:09;;;;;;;101.30;59.48;;;;;;;-2.43;77.02;101149.42;126695;1098;26523;-76
2020/12/02 05:26:47;;;;;;;101.73;58.53;;;;;;;-2.44;76.34;101145.05;126448;1098;23324;-77
2020/12/02 05:29:46;;;;;;;98.58;56.90;;;;;;;-2.45;76.98;101144.20;126587;1098;23376;-75
2020/12/02 05:32:25;;;;;;;108.12;61.55;;;;;;;-2.47;76.37;101143.42;126557;1098;25036;-75
2020/12/02 05:34:54;;;;;;;103.85;60.43;;;;;;;-2.49;77.06;101142.64;126688;1098;26779;-76
2020/12/02 05:37:37;;;;;;;107.50;61.13;;;;;;;-2.50;76.69;101143.58;126622;1098;23477;-76
2020/12/02 05:40:13;;;;;;;109.07;61.37;;;;;;;-2.51;76.37;101141.87;126613;1098;23325;-76
2020/12/02 05:42:52;;;;;;;95.85;50.78;;;;;;;-2.50;76.64;101148.92;126726;1098;23379;-75
2020/12/02 05:45:35;;;;;;;108.07;60.85;;;;;;;-2.51;76.41;101157.91;126672;1098;23323;-76
2020/12/02 05:48:11;;;;;;;113.35;62.27;;;;;;;-2.53;76.52;101154.45;126664;1098;23379;-75
2020/12/02 05:50:40;;;;;;;111.83;62.98;;;;;;;-2.54;76.88;101160.73;126671;1098;24957;-74
2020/12/02 05:53:34;;;;;;;108.17;57.33;;;;;;;-2.55;76.52;101156.35;126709;1098;23325;-73
2020/12/02 05:56:09;;;;;;;142.18;68.92;;;;;;;-2.57;77.00;101150.23;126665;1098;23325;-74
2020/12/02 05:58:41;;;;;;;116.62;58.58;;;;;;;-2.57;76.56;101153.76;126578;1099;23320;-74
2020/12/02 06:01:19;;;;;;;137.15;65.92;;;;;;;-2.58;77.06;101159.18;126697;1098;23386;-74
2020/12/02 06:03:54;;;;;;;138.05;70.22;;;;;;;-2.58;76.63;101153.84;126742;1098;26785;-76
2020/12/02 06:06:28;;;;;;;130.70;66.33;;;;;;;-2.57;77.18;101163.59;126602;1099;28053;-74
2020/12/02 06:08:57;;;;;;;139.40;67.87;;;;;;;-2.60;77.15;101153.95;126581;1098;23465;-76
2020/12/02 06:11:34;;;;;;;131.90;68.42;;;;;;;-2.60;76.64;101158.41;126597;1098;26500;-75
2020/12/02 06:14:29;;;;;;;123.22;65.50;;;;;;;-2.60;77.00;101158.41;126616;1098;23400;-74
2020/12/02 06:17:00;;;;;;;109.60;56.93;;;;;;;-2.62;76.66;101163.00;126612;1099;26855;-74
2020/12/02 06:19:47;;;;;;;147.43;69.12;;;;;;;-2.63;76.93;101161.27;126694;1098;26404;-73
2020/12/02 06:22:51;;;;;;;136.43;69.60;;;;;;;-2.65;76.57;101163.16;126682;1098;23388;-75
2020/12/02 06:25:46;;;;;;;129.40;67.47;;;;;;;-2.65;76.57;101165.83;126687;1098;23407;-75
2020/12/02 06:28:29;;;;;;;125.00;68.33;;;;;;;-2.64;76.71;101164.90;126723;1098;23396;-76
2020/12/02 06:31:12;;;;;;;124.87;69.82;;;;;;;-2.63;77.13;101163.94;126578;1098;26498;-75
2020/12/02 06:33:45;;;;;;;149.50;79.53;;;;;;;-2.65;77.18;101166.69;126677;1098;23423;-75
2020/12/02 06:36:32;;;;;;;;;;;;;;;-2.67;77.04;101169.47;126727;1098;23529;-74
2020/12/02 06:39:09;;;;;;;135.37;71.35;;;;;;;-2.69;76.93;101165.13;126655;1098;24247;-77
2020/12/02 06:41:43;;;;;;;119.27;67.20;;;;;;;-2.64;77.33;101172.91;126667;1098;23346;-78
2020/12/02 06:44:12;;;;;;;134.55;73.22;;;;;;;-2.59;77.12;101170.83;126659;1098;23346;-72
2020/12/02 06:47:04;;;;;;;119.35;65.05;;;;;;;-2.51;77.03;101179.27;126525;1099;23435;-76
2020/12/02 06:49:38;;;;;;;132.10;72.03;;;;;;;-2.51;76.93;101176.60;126699;1099;23340;-74
2020/12/02 06:52:09;;;;;;;135.93;72.08;;;;;;;-2.52;77.14;101172.19;126710;1098;23395;-75
2020/12/02 06:54:40;;;;;;;176.80;87.75;;;;;;;-2.53;76.64;101176.69;126730;1099;23327;-75
2020/12/02 06:57:25;;;;;;;138.47;70.25;;;;;;;-2.53;76.75;101170.48;126717;1098;23501;-74
2020/12/02 06:59:59;;;;;;;126.62;68.90;;;;;;;-2.57;76.88;101164.45;126653;1098;26811;-76
2020/12/02 07:02:39;;;;;;;153.67;75.93;;;;;;;-2.54;77.25;101179.44;126718;1098;27833;-75
2020/12/02 07:05:28;;;;;;;131.07;73.52;;;;;;;-2.52;77.20;101185.55;126688;1098;23342;-73
2020/12/02 07:08:26;;;;;;;132.45;68.97;;;;;;;-2.55;76.71;101189.27;126643;1098;23417;-75
2020/12/02 07:11:11;;;;;;;126.02;67.30;;;;;;;-2.59;77.07;101187.72;126703;1098;23365;-75
2020/12/02 07:13:45;;;;;;;137.47;67.75;;;;;;;-2.59;76.62;101187.72;126629;1098;23329;-75
2020/12/02 07:16:30;;;;;;;123.30;65.63;;;;;;;-2.56;76.55;101192.91;126725;1098;23417;-75
2020/12/02 07:19:12;;;;;;;127.12;72.22;;;;;;;-2.53;76.67;101191.86;126766;1098;23423;-75
2020/12/02 07:21:52;;;;;;;114.13;63.77;;;;;;;-2.51;76.62;101185.47;126665;1099;23397;-75
2020/12/02 07:24:28;;;;;;;108.80;59.67;;;;;;;-2.52;77.30;101182.87;126637;1098;23401;-75
2020/12/02 07:26:59;;;;;;;112.30;62.70;;;;;;;-2.50;77.30;101187.22;126739;1098;23339;-74
2020/12/02 07:29:31;;;;;;;109.63;59.10;;;;;;;-2.49;76.83;101188.92;126785;1098;23395;-74
2020/12/02 07:32:22;;;;;;;119.10;62.78;;;;;;;-2.49;76.82;101188.06;126657;1098;23274;-76
2020/12/02 07:35:14;;;;;;;115.80;63.00;;;;;;;-2.50;76.79;101180.98;126762;1098;26949;-74
2020/12/02 07:38:12;;;;;;;119.57;61.83;;;;;;;-2.51;76.99;101184.62;126670;1098;27927;-74
2020/12/02 07:40:47;;;;;;;111.80;57.67;;;;;;;-2.49;76.81;101188.06;126736;1098;23339;-74
2020/12/02 07:43:29;;;;;;;135.45;65.10;;;;;;;-2.49;77.02;101177.38;126622;1098;23444;-74
2020/12/02 07:46:05;;;;;;;98.33;58.08;;;;;;;-2.44;76.82;101180.64;126746;1098;23328;-74
2020/12/02 07:48:38;;;;;;;112.47;62.80;;;;;;;-2.41;76.71;101190.28;126740;1098;23432;-74
2020/12/02 07:51:15;;;;;;;114.30;63.80;;;;;;;-2.40;76.63;101192.02;126688;1098;23355;-75
2020/12/02 07:54:17;;;;;;;127.78;67.05;;;;;;;-2.42;76.96;101178.73;126713;1098;26209;-75
2020/12/02 07:56:48;;;;;;;133.82;70.55;;;;;;;-2.39;76.57;101185.72;126719;1099;23340;-75
2020/12/02 07:59:27;;;;;;;110.92;63.58;;;;;;;-2.39;77.16;101183.92;126701;1098;23325;-74
2020/12/02 08:02:21;;;;;;;105.20;60.52;;;;;;;-2.38;77.01;101185.64;126695;1099;27690;-75
2020/12/02 08:04:59;;;;;;;104.03;56.53;;;;;;;-2.43;76.37;101186.84;126205;1101;23347;-75
2020/12/02 08:07:58;;;;;;;101.18;54.35;;;;;;;-2.49;76.83;101188.92;126199;1102;26832;-74
2020/12/02 08:10:37;;;;;;;117.90;60.38;;;;;;;-2.58;76.28;101173.42;126131;1101;26830;-75
2020/12/02 08:13:19;;;;;;;100.30;54.23;;;;;;;-2.57;76.37;101184.97;126152;1101;23792;-73
2020/12/02 08:15:57;;;;;;;98.33;55.67;;;;;;;-2.58;77.00;101180.55;126216;1102;23333;-74
2020/12/02 08:18:29;;;;;;;104.12;57.00;;;;;;;-2.59;76.94;101184.19;126155;1101;23385;-75
2020/12/02 08:21:28;;;;;;;108.63;60.90;;;;;;;-2.64;76.70;101173.77;126228;1101;27595;-74
2020/12/02 08:24:41;;;;;;;102.85;55.48;;;;;;;-2.65;76.54;101180.04;125875;1104;22959;-74
2020/12/02 08:27:14;;;;;;;113.85;60.17;;;;;;;-2.64;76.99;101179.11;125878;1104;23395;-75
2020/12/02 08:29:50;;;;;;;;;;;;;;;-2.62;77.32;101179.03;125907;1104;28175;-74
2020/12/02 08:32:26;;;;;;;141.55;73.57;;;;;;;-2.61;77.30;101175.40;125909;1104;24245;-74
2020/12/02 08:34:57;;;;;;;149.65;73.92;;;;;;;-2.53;77.79;101175.83;126051;1104;25188;-74
2020/12/02 08:37:41;;;;;;;119.53;64.87;;;;;;;-2.42;77.74;101167.20;126084;1104;23382;-74
2020/12/02 08:40:47;;;;;;;100.42;52.95;;;;;;;-2.37;76.99;101184.70;126062;1104;23484;-74
2020/12/02 08:43:36;;;;;;;123.62;67.92;;;;;;;-2.41;76.97;101185.83;126233;1101;23440;-73
2020/12/02 08:46:27;;;;;;;128.43;69.10;;;;;;;-2.37;77.57;101184.70;126307;1101;23386;-73
2020/12/02 08:49:02;;;;;;;126.07;68.10;;;;;;;-2.35;76.85;101173.91;126345;1101;26532;-74
2020/12/02 08:51:32;;;;;;;116.73;64.12;;;;;;;-2.31;77.69;101178.12;126384;1101;23628;-74
2020/12/02 08:54:13;;;;;;;129.55;67.32;;;;;;;-2.22;77.62;101184.75;126351;1101;23522;-73
2020/12/02 08:56:44;;;;;;;118.57;62.30;;;;;;;-2.18;77.03;101175.59;126461;1103;26606;-74
2020/12/02 08:59:14;;;;;;;138.90;68.52;;;;;;;-2.15;77.19;101178.11;126406;1101;23452;-73
2020/12/02 09:01:43;;;;;;;117.82;64.42;;;;;;;-2.13;77.38;101173.54;126671;1098;26786;-73
2020/12/02 09:04:14;;;;;;;119.95;62.35;;;;;;;-2.11;77.38;101172.49;126842;1098;27689;-73
2020/12/02 09:06:43;;;;;;;111.08;58.00;;;;;;;-2.11;76.97;101166.29;126813;1098;26786;-73
2020/12/02 09:09:11;;;;;;;121.42;62.00;;;;;;;-2.10;77.11;101163.50;126804;1098;26817;-72
2020/12/02 09:11:42;;;;;;;120.87;64.77;;;;;;;-2.05;77.56;101163.23;126842;1098;23495;-73
2020/12/02 09:14:11;;;;;;;109.63;61.25;;;;;;;-2.03;77.45;101163.14;126890;1098;23389;-73
2020/12/02 09:16:40;;;;;;;122.13;63.05;;;;;;;-2.01;76.91;101171.94;126866;1098;23315;-73
2020/12/02 09:19:12;;;;;;;114.82;63.65;;;;;;;-2.00;76.73;101162.98;126890;1098;23311;-75
2020/12/02 09:21:48;;;;;;;120.77;66.90;;;;;;;-1.96;77.35;101165.37;126818;1098;26555;-73
2020/12/02 09:24:17;;;;;;;126.02;66.25;;;;;;;-1.92;77.56;101166.03;126876;1098;23441;-73
2020/12/02 09:26:46;;;;;;;108.55;51.48;;;;;;;-1.91;76.90;101165.10;126793;1098;23530;-73
2020/12/02 09:29:19;;;;;;;113.28;62.75;;;;;;;-1.93;76.90;101159.83;126753;1098;23376;-73
2020/12/02 09:31:47;;;;;;;108.85;58.75;;;;;;;-1.94;77.08;101154.56;126770;1098;23586;-74
2020/12/02 09:34:17;;;;;;;122.33;63.70;;;;;;;-1.93;76.93;101149.14;126733;1098;23349;-73
2020/12/02 09:36:46;;;;;;;110.08;59.98;;;;;;;-1.88;77.01;101149.74;126615;1098;23432;-75
2020/12/02 09:39:15;;;;;;;119.05;63.42;;;;;;;-1.89;76.67;101134.63;126797;1098;23379;-73
2020/12/02 09:42:24;;;;;;;122.95;66.33;;;;;;;-1.88;76.65;101146.18;126852;1099;27127;-74
2020/12/02 09:45:09;;;;;;;118.70;59.77;;;;;;;-1.84;76.93;101153.07;126804;1098;23463;-73
2020/12/02 09:47:39;;;;;;;99.10;56.80;;;;;;;-1.83;76.70;101148.58;126985;1098;23379;-73
2020/12/02 09:50:08;;;;;;;114.40;65.52;;;;;;;-1.84;76.87;101137.02;126790;1098;26498;-73
2020/12/02 09:52:48;;;;;;;109.30;62.60;;;;;;;-1.82;76.87;101139.61;126737;1098;27833;-74
2020/12/02 09:55:24;;;;;;;102.05;56.15;;;;;;;-1.81;76.78;101135.97;126475;1098;23433;-75
2020/12/02 09:57:53;;;;;;;119.57;63.23;;;;;;;-1.82;76.61;101135.13;126626;1098;26468;-76
2020/12/02 10:00:24;;;;;;;118.62;63.28;;;;;;;-1.81;77.01;101142.20;126575;1098;23324;-75
2020/12/02 10:03:14;;;;;;;110.80;62.75;;;;;;;-1.83;76.86;101138.77;126795;1098;23329;-81
2020/12/02 10:06:32;;;;;;;136.20;70.20;;;;;;;-1.80;76.87;101132.36;126668;1098;23392;-75
2020/12/02 10:09:48;;;;;;;115.25;61.80;;;;;;;-1.76;76.82;101129.40;126671;1098;27920;-76
2020/12/02 10:12:52;;;;;;;106.47;56.77;;;;;;;-1.76;77.10;101117.84;126202;1101;23341;-76
2020/12/02 10:15:52;;;;;;;126.00;63.63;;;;;;;-1.71;77.14;101131.79;126216;1101;23486;-74
2020/12/02 10:18:51;;;;;;;112.83;59.30;;;;;;;-1.69;76.77;101113.83;125831;1104;23466;-75
2020/12/02 10:21:44;;;;;;;104.80;60.97;;;;;;;-1.70;76.79;101112.13;125859;1105;23482;-75
2020/12/02 10:24:41;;;;;;;81.63;40.30;;;;;;;-1.68;77.04;101107.55;125849;1105;23373;-75
2020/12/02 10:28:10;;;;;;;94.67;48.20;;;;;;;-1.68;76.92;101110.22;125833;1104;23377;-75
2020/12/02 10:31:13;;;;;;;99.80;50.33;;;;;;;-1.68;77.12;101111.07;125859;1104;23446;-75
2020/12/02 10:34:05;;;;;;;111.50;59.27;;;;;;;-1.63;77.24;101101.91;125821;1105;26914;-74
2020/12/02 10:36:54;;;;;;;98.07;55.60;;;;;;;-1.61;76.60;101108.02;125859;1104;26874;-74
2020/12/02 10:39:29;;;;;;;110.23;58.00;;;;;;;-1.56;77.00;101095.20;125855;1105;23430;-75
2020/12/02 10:42:38;;;;;;;89.45;51.60;;;;;;;-1.49;77.02;101091.22;125871;1104;23620;-77
2020/12/02 10:45:10;;;;;;;112.57;63.23;;;;;;;-1.50;76.68;101089.48;126010;1104;23436;-72
2020/12/02 10:48:10;;;;;;;112.27;63.37;;;;;;;-1.51;76.32;101099.33;126369;1101;27114;-72
2020/12/02 10:50:40;;;;;;;111.50;60.08;;;;;;;-1.52;76.81;101084.21;126428;1102;23759;-72
2020/12/02 10:53:15;;;;;;;95.47;54.53;;;;;;;-1.41;77.05;101082.69;126407;1101;23363;-72
2020/12/02 10:55:43;;;;;;;92.12;51.37;;;;;;;-1.36;76.97;101075.25;126525;1099;23335;-73
2020/12/02 10:58:25;;;;;;;104.67;56.10;;;;;;;-1.33;76.84;101072.36;126838;1098;26833;-73
2020/12/02 11:00:59;;;;;;;107.00;58.60;;;;;;;-1.31;76.31;101070.45;126853;1098;23335;-72
2020/12/02 11:03:34;;;;;;;103.00;51.42;;;;;;;-1.27;76.85;101066.62;126811;1098;26412;-74
2020/12/02 11:06:37;;;;;;;102.00;57.85;;;;;;;-1.21;76.64;101073.41;127015;1099;23393;-72
2020/12/02 11:09:37;;;;;;;86.70;51.13;;;;;;;-1.22;76.33;101067.17;126696;1099;23384;-74
2020/12/02 11:12:33;;;;;;;79.15;40.98;;;;;;;-1.22;76.01;101072.53;126782;1098;23476;-72
2020/12/02 11:15:32;;;;;;;95.17;49.30;;;;;;;-1.27;76.36;101061.27;126826;1099;23390;-72
2020/12/02 11:18:33;;;;;;;94.75;55.00;;;;;;;-1.23;76.08;101060.11;126900;1099;27525;-73
2020/12/02 11:21:42;;;;;;;87.08;50.40;;;;;;;-1.19;76.32;101058.11;126662;1098;26445;-72
2020/12/02 11:24:28;;;;;;;80.17;44.83;;;;;;;-1.26;75.54;101047.79;126905;1098;23401;-72
2020/12/02 11:26:57;;;;;;;90.83;49.25;;;;;;;-1.32;75.61;101047.33;126798;1098;23463;-71
2020/12/02 11:29:25;;;;;;;90.92;46.88;;;;;;;-1.28;75.97;101044.35;126906;1098;23507;-71
2020/12/02 11:32:24;;;;;;;90.50;52.98;;;;;;;-1.22;75.86;101042.22;126761;1098;25200;-73
2020/12/02 11:35:14;;;;;;;88.58;47.95;;;;;;;-1.19;75.97;101040.22;126892;1098;23324;-72
2020/12/02 11:38:00;;;;;;;89.30;48.10;;;;;;;-1.14;76.27;101035.41;126881;1098;23909;-72
2020/12/02 11:40:52;;;;;;;89.42;51.80;;;;;;;-1.08;76.33;101036.84;126744;1098;23330;-73
2020/12/02 11:43:27;;;;;;;90.72;52.17;;;;;;;-1.01;76.22;101038.16;126792;1099;27889;-71
2020/12/02 11:45:58;;;;;;;63.60;38.25;;;;;;;-1.04;75.40;101033.02;126875;1098;23341;-71
2020/12/02 11:48:58;;;;;;;87.20;49.13;;;;;;;-1.04;75.75;101044.58;126868;1098;23493;-71